TimeCST,TemperatureF,Dew PointF,Humidity,Sea Level PressureIn,VisibilityMPH,Wind Direction,Wind SpeedMPH,Gust SpeedMPH,PrecipitationIn,Events,Conditions,WindDirDegrees,DateUTC
12:53 AM,35.1,30.9,85,30.29,10.0,NNE,5.8,-,N/A,,Clear,20,2012-11-15 06:53:00
1:53 AM,33.1,30.9,92,30.29,10.0,NE,5.8,-,N/A,,Clear,40,2012-11-15 07:53:00
2:53 AM,33.1,30.0,89,30.29,10.0,NNE,4.6,-,N/A,,Clear,30,2012-11-15 08:53:00
3:53 AM,33.1,30.0,89,30.29,10.0,NE,5.8,-,N/A,,Clear,40,2012-11-15 09:53:00
4:53 AM,34.0,30.9,89,30.30,10.0,NNE,4.6,-,N/A,,Clear,20,2012-11-15 10:53:00
5:53 AM,33.1,30.0,89,30.32,10.0,NE,5.8,-,N/A,,Clear,40,2012-11-15 11:53:00
6:53 AM,33.1,30.0,89,30.33,10.0,NNE,4.6,-,N/A,,Clear,30,2012-11-15 12:53:00
7:53 AM,37.0,33.1,86,30.33,10.0,NE,5.8,-,N/A,,Clear,50,2012-11-15 13:53:00
8:53 AM,43.0,35.1,74,30.35,10.0,NNE,3.5,-,N/A,,Clear,30,2012-11-15 14:53:00
9:53 AM,48.9,37.0,64,30.35,10.0,Calm,Calm,-,N/A,,Clear,0,2012-11-15 15:53:00
10:53 AM,54.0,37.0,53,30.34,10.0,NNE,4.6,-,N/A,,Clear,20,2012-11-15 16:53:00
11:53 AM,57.9,36.0,44,30.30,10.0,North,9.2,-,N/A,,Clear,10,2012-11-15 17:53:00
12:53 PM,59.0,37.0,44,30.29,10.0,NNE,10.4,-,N/A,,Clear,20,2012-11-15 18:53:00
1:53 PM,60.1,36.0,41,30.27,10.0,NE,5.8,-,N/A,,Clear,40,2012-11-15 19:53:00
2:53 PM,59.0,36.0,42,30.26,10.0,NE,4.6,-,N/A,,Clear,40,2012-11-15 20:53:00
3:53 PM,57.9,36.0,44,30.26,10.0,ENE,3.5,-,N/A,,Clear,70,2012-11-15 21:53:00
4:53 PM,52.0,37.9,59,30.26,10.0,Calm,Calm,-,N/A,,Clear,0,2012-11-15 22:53:00
5:53 PM,48.9,37.9,66,30.28,10.0,Calm,Calm,-,N/A,,Clear,0,2012-11-15 23:53:00
6:53 PM,46.9,37.0,68,30.30,10.0,NNE,3.5,-,N/A,,Clear,20,2012-11-16 00:53:00
7:53 PM,46.9,36.0,66,30.30,10.0,NNE,6.9,-,N/A,,Clear,20,2012-11-16 01:53:00
8:53 PM,44.1,35.1,71,30.32,10.0,NNE,8.1,-,N/A,,Clear,30,2012-11-16 02:53:00
9:53 PM,39.9,34.0,79,30.32,10.0,NNE,5.8,-,N/A,,Clear,30,2012-11-16 03:53:00
10:53 PM,39.0,33.1,79,30.32,10.0,NNE,5.8,-,N/A,,Clear,30,2012-11-16 04:53:00
11:53 PM,37.9,32.0,79,30.31,10.0,NE,5.8,-,N/A,,Clear,40,2012-11-16 05:53:00